Historique des mesures à Cassis (13260), France
Quotidien Résumé Janvier 27, 2017 Unités:  Métrique    US   Métrique/US
« Précédent (Jour)
Suivant (Jour) »
Quotidien Hebdomadaire Mensuel Annuel Période au choix
  Maximum: Minimum: Moyenne:
Température: TemperatureC °C 10.4 °C 11.2 °C
Point de rosée: DewpointC °C 6.6 °C 6.6 °C
Humidité: Humidity % 66 % 70 %
Vitesse du vent: 0 km/h 0 km/h 6.9 km/h
Rafales: 0 km/h - -
Vent:- - SE
Pression: PressurehPa hPa 1014.1 hPa -
Précipitations: 0.0 mm    
Historical Graphs
 
 
Mesures pour : Janvier 27, 2017
Heure Temperature Point de rosée Pression Vent Vitesse du vent Rafales Humidité Pluie (par heure) Conditions
TemperatureC °C DewpointC °C PressurehPa hPa Calm     Humidity % HourlyPrecipMM mm SoftwareType W/m2
00:10 10.4 °C 7.4 °C 1018.8 hPa SE 12.2 km/h 19.6 km/h 82 % 0.0 mm open2300-1.11 W/m2
01:11 10.4 °C 7.1 °C 1018.8 hPa SE 2.3 km/h 9.8 km/h 80 % 0.0 mm open2300-1.11 W/m2
02:10 10.6 °C 7.1 °C 1018.5 hPa SW 4.2 km/h 13.2 km/h 79 % 0.0 mm open2300-1.11 W/m2
03:11 11.1 °C 7.8 °C 1018.8 hPa Calm     80 % 0.0 mm open2300-1.11 W/m2
04:10 11.1 °C 7.4 °C 1018.5 hPa SE 3.4 km/h 13.2 km/h 78 % 0.0 mm open2300-1.11 W/m2
05:11 11.2 °C 7.5 °C 1018.5 hPa ESE 7.6 km/h 7.6 km/h 78 % 0.0 mm open2300-1.11 W/m2
06:10 10.7 °C 7.2 °C 1018.2 hPa ESE 2.3 km/h 2.3 km/h 79 % 0.0 mm open2300-1.11 W/m2
07:11 10.5 °C 6.8 °C 1018.2 hPa Calm   15 km/h 78 % 0.0 mm open2300-1.11 W/m2
09:11 11.0 °C 6.6 °C 1017.8 hPa SSE 10.9 km/h 10.9 km/h 74 % 0.0 mm open2300-1.11 W/m2
10:10 11.4 °C 6.6 °C 1018.5 hPa ESE 6.4 km/h 6.4 km/h 72 % 0.0 mm open2300-1.11 W/m2
11:11 11.9 °C 6.6 °C 1018.5 hPa ESE 8 km/h 11.6 km/h 70 % 0.0 mm open2300-1.11 W/m2
12:10 12.3 °C 6.8 °C 1017.8 hPa SE 1.8 km/h 4.2 km/h 69 % 0.0 mm open2300-1.11 W/m2
13:11 12.9 °C 6.9 °C 1017.2 hPa SE 4.2 km/h 13.2 km/h 67 % 0.0 mm open2300-1.11 W/m2
14:10 13.1 °C 6.9 °C 1016.1 hPa SE 13.2 km/h 13.2 km/h 66 % 0.0 mm open2300-1.11 W/m2
15:11 12.9 °C 6.9 °C 1015.8 hPa ESE 12.2 km/h 13.2 km/h 67 % 0.0 mm open2300-1.11 W/m2
16:10 12.7 °C 6.9 °C 1015.8 hPa Calm   23 km/h 68 % 0.0 mm open2300-1.11 W/m2
17:11 12.3 °C 6.6 °C 1015.5 hPa South 22 km/h 22 km/h 68 % 0.0 mm open2300-1.11 W/m2
18:10 12.1 °C 6.6 °C 1015.1 hPa East 2.9 km/h 20.9 km/h 69 % 0.0 mm open2300-1.11 W/m2
19:11 12.2 °C 6.7 °C 1015.5 hPa Calm   15 km/h 69 % 0.0 mm open2300-1.11 W/m2
21:11 12.3 °C 6.6 °C 1014.4 hPa East 29 km/h 29 km/h 68 % 0.0 mm open2300-1.11 W/m2
22:10 12.3 °C 6.6 °C 1014.1 hPa ESE 9.3 km/h 15.6 km/h 68 % 0.0 mm open2300-1.11 W/m2
23:11 12.3 °C 6.8 °C 1014.1 hPa ESE 5.6 km/h 15 km/h 69 % 0.0 mm open2300-1.11 W/m2
Observations météo à CASSIS
WU-History script by Weather Underground - 1 mb